Time;durP1;ratioP1;P1;durP2;ratioP2;P2;SDS_P1;SDS_P2;PMS_P1;PMS_P2;Temp;Humidity;BMP_temperature;BMP_pressure;BME280_temperature;BME280_humidity;BME280_pressure;Samples;Min_cycle;Max_cycle;Signal;HPM_P1;HPM_P2
2023/12/20 00:01:23;;;;;;;4.10;2.27;;;;;;;17.84;54.60;100488.22;4958815;28;20174;-72
2023/12/20 00:03:48;;;;;;;5.50;2.70;;;;;;;17.78;55.34;100495.41;4950461;28;20972;-71
2023/12/20 00:06:13;;;;;;;4.97;2.13;;;;;;;17.80;55.28;100480.78;4937037;28;20186;-71
2023/12/20 00:08:39;;;;;;;4.70;2.63;;;;;;;17.79;54.93;100494.22;4937879;28;20763;-72
2023/12/20 00:11:04;;;;;;;4.90;2.33;;;;;;;17.79;55.00;100497.06;4950815;28;20202;-72
2023/12/20 00:13:30;;;;;;;4.20;2.57;;;;;;;17.84;54.93;100488.22;4953204;28;20237;-72
2023/12/20 00:15:55;;;;;;;4.70;2.23;;;;;;;17.82;55.27;100484.91;4953791;28;20641;-72
2023/12/20 00:18:20;;;;;;;5.13;2.63;;;;;;;17.77;55.28;100490.91;4937934;28;20171;-72
2023/12/20 00:20:46;;;;;;;5.63;2.30;;;;;;;17.87;54.77;100493.19;4952035;28;20182;-72
2023/12/20 00:23:11;;;;;;;5.47;2.43;;;;;;;17.82;54.91;100492.66;4938379;28;20175;-72
2023/12/20 00:25:37;;;;;;;3.70;2.30;;;;;;;17.82;55.02;100484.06;4938483;28;20636;-71
2023/12/20 00:28:03;;;;;;;6.60;2.33;;;;;;;17.83;54.91;100477.16;4952145;28;20194;-72
2023/12/20 00:30:28;;;;;;;4.07;2.30;;;;;;;17.88;54.73;100488.28;4917779;29;20187;-72
2023/12/20 00:32:54;;;;;;;4.30;2.60;;;;;;;17.83;55.16;100486.56;4951520;28;20201;-71
2023/12/20 00:35:19;;;;;;;6.43;2.50;;;;;;;17.82;54.65;100490.63;4935458;28;20696;-72
2023/12/20 00:37:45;;;;;;;4.33;2.20;;;;;;;17.76;55.08;100486.38;4937880;28;20230;-71
2023/12/20 00:40:10;;;;;;;3.83;2.07;;;;;;;17.76;55.18;100503.50;4953887;28;20522;-71
2023/12/20 00:42:36;;;;;;;4.63;2.57;;;;;;;17.78;54.94;100506.84;4936606;28;20639;-72
2023/12/20 00:45:02;;;;;;;4.00;2.33;;;;;;;17.77;55.38;100507.22;4921760;28;20198;-72
2023/12/20 00:47:28;;;;;;;4.10;2.13;;;;;;;17.76;54.91;100509.22;4943929;29;20303;-72
2023/12/20 00:49:53;;;;;;;5.60;2.47;;;;;;;17.78;55.47;100506.84;4918837;29;20523;-72
2023/12/20 00:52:19;;;;;;;4.10;2.43;;;;;;;17.78;55.15;100512.56;4920669;28;20210;-72
2023/12/20 00:54:44;;;;;;;3.40;2.20;;;;;;;17.75;55.65;100506.75;4953382;28;20320;-72
2023/12/20 00:57:10;;;;;;;4.87;2.60;;;;;;;17.75;55.12;100512.47;4952681;28;20729;-72
2023/12/20 00:59:35;;;;;;;3.37;2.10;;;;;;;17.77;55.37;100510.91;4937149;28;21314;-72
2023/12/20 01:02:00;;;;;;;7.53;2.93;;;;;;;17.77;55.01;100510.91;4966133;28;20189;-72
2023/12/20 01:04:26;;;;;;;4.33;2.10;;;;;;;17.73;55.72;100503.44;4946250;28;20190;-72
2023/12/20 01:06:52;;;;;;;4.23;2.30;;;;;;;17.75;55.77;100498.19;4939513;28;20186;-72
2023/12/20 01:09:18;;;;;;;3.20;2.13;;;;;;;17.74;56.11;100502.22;4954468;28;20190;-72
2023/12/20 01:11:44;;;;;;;3.80;2.00;;;;;;;17.76;55.13;100503.50;4954877;28;20637;-72
2023/12/20 01:14:09;;;;;;;3.60;2.10;;;;;;;17.77;55.36;100502.34;4956105;28;20438;-72
2023/12/20 01:16:34;;;;;;;4.47;2.00;;;;;;;17.73;55.75;100497.72;4955996;28;20538;-72
2023/12/20 01:19:00;;;;;;;4.10;2.13;;;;;;;17.75;55.28;100503.91;4929731;29;20876;-74
2023/12/20 01:21:25;;;;;;;3.90;2.43;;;;;;;17.76;55.21;100491.28;4938887;29;20655;-74
2023/12/20 01:23:51;;;;;;;3.63;2.23;;;;;;;17.72;55.76;100490.34;4938845;29;20187;-74
2023/12/20 01:26:16;;;;;;;5.67;2.57;;;;;;;17.73;55.24;100490.00;4938860;29;20480;-74
2023/12/20 01:28:42;;;;;;;5.90;1.80;;;;;;;17.69;56.31;100494.78;4961009;28;20260;-74
2023/12/20 01:31:08;;;;;;;8.00;2.97;;;;;;;17.69;55.51;100485.38;4943000;28;20182;-74
2023/12/20 01:33:33;;;;;;;4.03;2.20;;;;;;;17.70;55.82;100484.19;4942782;28;20531;-74
2023/12/20 01:35:59;;;;;;;4.77;2.27;;;;;;;17.70;55.58;100476.44;4983510;23;20500;-74
2023/12/20 01:38:24;;;;;;;4.90;2.13;;;;;;;17.67;55.71;100482.91;4953592;28;20190;-74
2023/12/20 01:40:50;;;;;;;4.73;2.20;;;;;;;17.72;55.15;100485.50;4944866;28;20178;-74
2023/12/20 01:43:15;;;;;;;6.50;2.50;;;;;;;17.70;55.42;100481.34;4961444;28;20184;-74
2023/12/20 01:45:41;;;;;;;3.97;2.10;;;;;;;17.68;55.81;100480.88;4960470;28;20633;-74
2023/12/20 01:48:07;;;;;;;4.27;2.27;;;;;;;17.68;55.57;100484.56;4976408;28;20173;-74
2023/12/20 01:50:33;;;;;;;3.53;1.77;;;;;;;17.72;55.78;100476.09;4959960;28;20185;-74
2023/12/20 01:52:59;;;;;;;5.00;2.37;;;;;;;17.69;55.56;100477.66;4957181;28;20480;-74
2023/12/20 01:55:25;;;;;;;3.20;1.70;;;;;;;17.68;55.63;100478.03;4959626;28;20239;-74
2023/12/20 01:57:51;;;;;;;5.40;1.93;;;;;;;17.68;55.63;100475.16;4948241;28;20479;-74
2023/12/20 02:00:38;;;;;;;3.23;1.90;;;;;;;17.66;55.58;100475.53;4960224;28;20181;-71
2023/12/20 02:03:04;;;;;;;3.60;1.87;;;;;;;17.67;55.73;100476.38;4975299;28;20496;-68
2023/12/20 02:07:57;;;;;;;4.00;2.30;;;;;;;17.64;55.96;100482.81;4966156;28;20210;-60
2023/12/20 02:10:23;;;;;;;2.90;1.90;;;;;;;17.68;55.57;100478.84;4967176;28;20966;-59
2023/12/20 02:12:49;;;;;;;5.20;2.27;;;;;;;17.67;55.81;100477.22;4973365;28;20277;-60
2023/12/20 02:15:14;;;;;;;4.27;2.20;;;;;;;17.68;55.71;100473.16;4969606;28;20936;-60
2023/12/20 02:17:40;;;;;;;3.23;1.80;;;;;;;17.66;55.76;100471.88;4973107;28;20188;-59
2023/12/20 02:20:06;;;;;;;4.90;2.00;;;;;;;17.63;56.35;100479.16;4972758;28;20836;-60
2023/12/20 02:22:31;;;;;;;3.57;2.10;;;;;;;17.67;55.77;100480.06;4969999;28;20757;-60
2023/12/20 02:24:57;;;;;;;3.73;1.80;;;;;;;17.65;55.53;100471.03;4972909;28;20430;-59
2023/12/20 02:27:22;;;;;;;5.17;2.37;;;;;;;17.66;55.58;100469.81;4964765;28;20190;-60
2023/12/20 02:29:48;;;;;;;6.13;1.80;;;;;;;17.64;55.70;100472.22;4953657;29;20529;-60
2023/12/20 02:32:13;;;;;;;4.00;1.80;;;;;;;17.68;55.71;100466.59;4966504;28;20221;-60
2023/12/20 02:34:39;;;;;;;4.17;2.20;;;;;;;17.64;55.75;100472.22;4955585;28;20190;-60
2023/12/20 02:37:04;;;;;;;3.60;2.10;;;;;;;17.62;56.11;100474.63;4953744;28;20254;-60
2023/12/20 02:39:30;;;;;;;3.60;1.60;;;;;;;17.61;55.88;100472.97;4966732;28;20253;-60
2023/12/20 02:41:55;;;;;;;5.03;2.37;;;;;;;17.65;55.96;100468.16;4946029;29;20568;-60
2023/12/20 02:44:21;;;;;;;3.13;1.80;;;;;;;17.65;56.15;100473.88;4952566;29;20186;-60
2023/12/20 02:46:46;;;;;;;4.10;2.03;;;;;;;17.64;55.77;100480.78;4964471;28;20252;-59
2023/12/20 02:49:12;;;;;;;3.20;1.80;;;;;;;17.65;55.73;100478.78;4971351;28;20178;-59
2023/12/20 02:51:40;;;;;;;3.40;1.87;;;;;;;17.65;55.67;100478.78;4966675;28;20548;-59
2023/12/20 02:54:05;;;;;;;4.10;2.10;;;;;;;17.66;55.55;100491.84;4965397;28;20773;-60
2023/12/20 02:56:32;;;;;;;3.57;1.80;;;;;;;17.66;55.72;100486.13;4971523;28;20433;-60
2023/12/20 02:58:58;;;;;;;3.33;1.97;;;;;;;17.60;56.01;100481.91;4971918;28;20186;-60
2023/12/20 03:01:23;;;;;;;3.90;1.77;;;;;;;17.62;56.07;100493.78;4968291;28;20437;-59
2023/12/20 03:03:48;;;;;;;4.07;2.50;;;;;;;17.61;56.06;100487.22;4938691;28;20170;-60
2023/12/20 03:06:20;;;;;;;3.57;2.00;;;;;;;17.60;55.95;100497.00;4947492;28;20923;-60
2023/12/20 03:08:46;;;;;;;3.83;1.80;;;;;;;17.60;56.39;100487.63;4953151;29;20254;-60
2023/12/20 03:11:11;;;;;;;3.67;2.00;;;;;;;17.64;56.16;100508.50;4954603;28;20493;-60
2023/12/20 03:13:37;;;;;;;3.30;1.70;;;;;;;17.63;55.67;100507.69;4955325;28;20213;-59
2023/12/20 03:16:11;;;;;;;3.80;1.70;;;;;;;17.58;55.82;100507.97;4971181;28;20226;-60
2023/12/20 03:18:36;;;;;;;3.53;1.80;;;;;;;17.61;56.00;100501.50;4962536;28;20320;-60
2023/12/20 03:21:02;;;;;;;3.67;1.80;;;;;;;17.60;56.10;100499.84;4971388;28;20426;-60
2023/12/20 03:23:30;;;;;;;3.03;1.87;;;;;;;17.58;56.24;100501.41;4970415;28;20183;-60
2023/12/20 03:25:55;;;;;;;4.53;1.93;;;;;;;17.62;55.67;100508.91;4960976;28;20426;-60
2023/12/20 03:28:21;;;;;;;3.37;1.90;;;;;;;17.60;55.91;100496.19;4971775;28;21299;-60
2023/12/20 03:30:46;;;;;;;3.00;1.80;;;;;;;17.58;55.90;100493.69;4953977;28;20178;-60
2023/12/20 03:33:12;;;;;;;4.10;1.93;;;;;;;17.58;56.00;100490.84;4967279;28;20210;-60
2023/12/20 03:35:37;;;;;;;2.57;1.63;;;;;;;17.59;56.12;100498.22;4962344;28;20178;-60
2023/12/20 03:38:03;;;;;;;4.47;2.37;;;;;;;17.64;56.06;100499.94;4954240;28;20186;-60
2023/12/20 03:40:28;;;;;;;2.97;1.60;;;;;;;17.57;56.27;100503.47;4971377;28;20185;-59
2023/12/20 03:42:54;;;;;;;3.60;2.00;;;;;;;17.61;55.77;100507.22;4967082;28;20583;-60
2023/12/20 03:45:19;;;;;;;3.13;1.97;;;;;;;17.60;55.87;100502.72;4951493;28;20518;-60
2023/12/20 03:47:45;;;;;;;4.60;2.00;;;;;;;17.61;55.89;100504.34;4970577;28;20175;-60
2023/12/20 03:50:10;;;;;;;3.23;1.67;;;;;;;17.58;56.23;100510.81;4966856;28;20190;-60
2023/12/20 03:52:36;;;;;;;2.63;1.47;;;;;;;17.62;55.66;100525.19;4970280;28;20805;-59
2023/12/20 03:55:01;;;;;;;3.00;1.87;;;;;;;17.60;55.55;100511.28;4964886;28;20190;-60
2023/12/20 03:57:26;;;;;;;2.77;1.50;;;;;;;17.58;55.84;100513.69;4951677;29;20175;-60
2023/12/20 03:59:52;;;;;;;2.70;1.83;;;;;;;17.64;55.95;100517.91;4951718;28;20183;-60
2023/12/20 04:02:17;;;;;;;3.53;1.90;;;;;;;17.62;55.75;100511.75;4952255;29;20175;-60
2023/12/20 04:04:43;;;;;;;3.57;1.73;;;;;;;17.65;55.79;100499.56;4963266;28;20185;-59
2023/12/20 04:07:10;;;;;;;5.00;1.97;;;;;;;17.62;55.80;100503.19;4970853;28;20234;-59
2023/12/20 04:09:35;;;;;;;2.80;1.73;;;;;;;17.63;55.92;100506.84;4969414;28;20191;-59
2023/12/20 04:12:01;;;;;;;2.90;1.83;;;;;;;17.63;55.83;100519.13;4951716;29;20462;-60
2023/12/20 04:14:26;;;;;;;2.87;1.83;;;;;;;17.59;55.97;100526.75;4958977;28;20181;-59
2023/12/20 04:16:52;;;;;;;3.50;1.90;;;;;;;17.64;56.04;100529.31;4959076;28;20190;-60
2023/12/20 04:19:18;;;;;;;4.47;1.90;;;;;;;17.67;55.75;100519.19;4951840;29;20241;-60
2023/12/20 04:21:43;;;;;;;4.20;1.73;;;;;;;17.62;56.08;100526.03;4953723;28;20175;-60
2023/12/20 04:24:08;;;;;;;2.70;1.70;;;;;;;17.63;55.74;100539.09;4954620;28;20201;-60
2023/12/20 04:26:34;;;;;;;2.60;1.60;;;;;;;17.64;55.86;100535.03;4970529;28;20183;-60
2023/12/20 04:28:59;;;;;;;3.57;1.87;;;;;;;17.63;56.21;100541.09;4967356;28;20193;-60
2023/12/20 04:31:25;;;;;;;3.07;1.70;;;;;;;17.61;55.74;100532.09;4954721;28;20201;-60
2023/12/20 04:33:50;;;;;;;2.53;1.40;;;;;;;17.61;56.11;100541.47;4961326;28;20177;-60
2023/12/20 04:36:15;;;;;;;2.43;1.77;;;;;;;17.63;55.92;100547.66;4958410;28;20201;-60
2023/12/20 04:38:41;;;;;;;2.20;1.27;;;;;;;17.64;55.88;100554.19;4952150;28;20190;-60
2023/12/20 04:41:06;;;;;;;5.37;1.70;;;;;;;17.66;55.86;100560.38;4957606;28;20190;-60
2023/12/20 04:43:32;;;;;;;3.07;1.63;;;;;;;17.62;56.37;100560.28;4969267;28;20193;-60
2023/12/20 04:45:57;;;;;;;3.27;1.70;;;;;;;17.62;55.38;100566.00;4963881;28;20240;-59
2023/12/20 04:48:23;;;;;;;3.10;1.60;;;;;;;17.65;55.50;100565.25;4968564;28;20178;-60
2023/12/20 04:50:48;;;;;;;2.47;1.77;;;;;;;17.65;56.05;100570.94;4966197;28;20175;-60
2023/12/20 04:53:14;;;;;;;2.57;1.40;;;;;;;17.64;55.91;100563.59;4952466;28;20202;-60
2023/12/20 04:55:39;;;;;;;3.30;1.80;;;;;;;17.58;56.25;100565.06;4953063;28;20190;-59
2023/12/20 04:58:04;;;;;;;2.77;1.83;;;;;;;17.62;56.52;100570.88;4967217;28;20177;-60
2023/12/20 05:00:30;;;;;;;2.60;1.80;;;;;;;17.65;55.81;100573.00;4953125;28;20183;-59
2023/12/20 05:02:55;;;;;;;5.00;1.67;;;;;;;17.64;55.54;100575.00;4970648;28;20175;-60
2023/12/20 05:05:21;;;;;;;2.73;1.57;;;;;;;17.67;55.68;100573.44;4953077;28;20238;-60
2023/12/20 05:07:46;;;;;;;2.23;1.40;;;;;;;17.67;56.20;100584.88;4945638;28;20226;-60
2023/12/20 05:10:12;;;;;;;2.33;1.57;;;;;;;17.67;55.49;100585.72;4951402;29;20183;-60
2023/12/20 05:12:37;;;;;;;3.13;1.80;;;;;;;17.63;55.36;100584.78;4952993;28;20203;-60
2023/12/20 05:15:04;;;;;;;2.90;1.60;;;;;;;17.67;55.53;100579.16;4962775;28;20170;-59
2023/12/20 05:17:30;;;;;;;2.57;1.33;;;;;;;17.64;56.49;100579.88;4970439;28;20178;-60
2023/12/20 05:19:56;;;;;;;3.40;1.63;;;;;;;17.66;55.92;100583.22;4969844;28;20754;-60
2023/12/20 05:22:21;;;;;;;4.10;1.90;;;;;;;17.67;55.92;100582.84;4961805;28;20206;-60
2023/12/20 05:24:47;;;;;;;2.77;1.40;;;;;;;17.69;55.48;100576.75;4951221;29;20591;-60
2023/12/20 05:27:12;;;;;;;3.03;1.57;;;;;;;17.68;55.91;100583.66;4961132;28;20246;-60
2023/12/20 05:29:37;;;;;;;2.80;1.73;;;;;;;17.69;55.45;100594.72;4968982;28;20175;-60
2023/12/20 05:32:04;;;;;;;2.73;1.30;;;;;;;17.70;55.67;100584.94;4969674;28;20209;-60
2023/12/20 05:34:30;;;;;;;3.07;1.60;;;;;;;17.70;55.67;100587.81;4950297;28;20301;-60
2023/12/20 05:36:56;;;;;;;2.70;1.73;;;;;;;17.66;56.19;100595.44;4969344;28;20418;-59
2023/12/20 05:39:21;;;;;;;2.90;1.60;;;;;;;17.70;55.57;100590.66;4950195;28;20418;-59
2023/12/20 05:41:47;;;;;;;2.63;1.40;;;;;;;17.69;55.31;100606.13;4967137;28;20189;-60
2023/12/20 05:44:13;;;;;;;2.43;1.20;;;;;;;17.65;55.88;100610.91;4969678;28;20205;-60
2023/12/20 05:46:39;;;;;;;2.50;1.50;;;;;;;17.63;56.44;100616.19;4955381;28;20421;-60
2023/12/20 05:49:05;;;;;;;2.43;1.43;;;;;;;17.76;55.44;100616.94;4951621;28;20267;-60
2023/12/20 05:51:30;;;;;;;2.73;1.60;;;;;;;17.72;55.65;100619.69;4973696;28;20458;-60
2023/12/20 05:53:56;;;;;;;3.10;1.80;;;;;;;17.66;56.23;100623.19;4973775;28;20171;-60
2023/12/20 05:56:22;;;;;;;3.00;1.80;;;;;;;17.63;56.09;100624.75;4957662;28;20350;-60
2023/12/20 05:58:47;;;;;;;2.77;1.57;;;;;;;17.68;55.46;100621.63;4954202;29;20175;-60
2023/12/20 06:01:14;;;;;;;2.73;1.57;;;;;;;17.66;55.81;100624.00;4964262;28;20194;-60
2023/12/20 06:03:41;;;;;;;2.20;1.47;;;;;;;17.67;55.62;100622.81;4954341;29;20551;-60
2023/12/20 06:06:07;;;;;;;2.77;1.40;;;;;;;17.67;56.06;100619.97;4959516;28;20473;-60
2023/12/20 06:08:33;;;;;;;1.97;1.33;;;;;;;17.74;55.20;100616.44;4956741;28;20464;-60
2023/12/20 06:10:58;;;;;;;2.83;1.50;;;;;;;17.73;55.29;100620.50;4954029;29;20660;-60
2023/12/20 06:13:24;;;;;;;2.03;1.20;;;;;;;17.73;55.36;100629.91;4956137;28;20266;-60
2023/12/20 06:15:49;;;;;;;2.03;1.33;;;;;;;17.72;55.59;100633.13;4965719;28;20183;-60
2023/12/20 06:18:14;;;;;;;3.23;1.37;;;;;;;17.72;55.54;100638.84;4936684;29;20159;-60
2023/12/20 06:20:40;;;;;;;2.80;1.50;;;;;;;17.70;55.68;100638.38;4952640;29;20183;-60
2023/12/20 06:23:05;;;;;;;2.23;1.43;;;;;;;17.73;55.46;100635.63;4955869;28;20202;-60
2023/12/20 06:25:31;;;;;;;2.70;1.40;;;;;;;17.75;55.32;100650.34;4953962;29;20253;-59
2023/12/20 06:27:56;;;;;;;2.50;1.50;;;;;;;17.68;55.46;100655.88;4956697;28;20193;-60
2023/12/20 06:30:21;;;;;;;3.40;1.40;;;;;;;17.74;55.34;100650.72;4969819;28;20187;-60
2023/12/20 06:32:47;;;;;;;2.40;1.40;;;;;;;17.71;55.51;100640.03;4968219;28;20206;-59
2023/12/20 06:35:13;;;;;;;2.63;1.50;;;;;;;17.70;55.69;100653.47;4972021;28;20190;-59
2023/12/20 06:37:42;;;;;;;2.13;1.40;;;;;;;17.75;55.45;100650.34;4968003;28;20179;-59
2023/12/20 06:40:09;;;;;;;2.93;1.50;;;;;;;17.74;55.35;100662.97;4971972;28;20178;-60
2023/12/20 06:42:34;;;;;;;2.20;1.30;;;;;;;17.76;55.47;100666.28;4969645;28;20434;-60
2023/12/20 06:45:00;;;;;;;2.43;1.33;;;;;;;17.71;55.31;100665.75;4952776;28;20510;-60
2023/12/20 06:47:26;;;;;;;3.80;1.53;;;;;;;17.67;55.68;100648.53;4972617;28;20210;-59
2023/12/20 06:49:52;;;;;;;2.40;1.20;;;;;;;17.68;55.70;100660.75;4968182;28;20321;-60
2023/12/20 06:52:17;;;;;;;2.63;1.33;;;;;;;17.69;55.67;100666.09;4972654;28;20470;-59
2023/12/20 06:54:42;;;;;;;5.33;2.07;;;;;;;17.72;55.55;100662.53;4970009;28;20193;-59
2023/12/20 06:57:08;;;;;;;3.33;1.50;;;;;;;17.76;55.62;100683.41;4961577;28;20225;-59
2023/12/20 06:59:38;;;;;;;2.37;1.33;;;;;;;17.76;55.61;100674.84;4955528;28;20202;-60
2023/12/20 07:02:05;;;;;;;2.80;1.50;;;;;;;17.70;55.92;100690.59;4972597;28;20181;-60
2023/12/20 07:04:30;;;;;;;2.17;1.20;;;;;;;17.71;56.38;100688.59;4965541;28;20442;-60
2023/12/20 07:06:57;;;;;;;2.20;1.10;;;;;;;17.77;55.59;100696.53;4952860;28;20549;-60
2023/12/20 07:09:23;;;;;;;3.10;1.50;;;;;;;17.77;55.74;100698.53;4972442;28;20189;-60
2023/12/20 07:11:48;;;;;;;2.20;1.30;;;;;;;17.74;55.48;100717.22;4972486;28;20462;-60
2023/12/20 07:14:14;;;;;;;2.50;1.60;;;;;;;17.78;55.29;100715.31;4965044;28;20183;-60
2023/12/20 07:16:40;;;;;;;2.67;1.50;;;;;;;17.73;55.55;100709.88;4966783;28;20182;-60
2023/12/20 07:19:06;;;;;;;2.70;1.50;;;;;;;17.69;55.96;100716.66;4972074;28;20171;-60
2023/12/20 07:21:31;;;;;;;1.90;1.20;;;;;;;17.74;55.22;100719.25;4960999;28;20428;-60
2023/12/20 07:23:57;;;;;;;3.23;1.37;;;;;;;17.74;55.60;100724.97;4971460;28;20182;-60
2023/12/20 07:26:23;;;;;;;2.50;1.50;;;;;;;17.71;55.43;100740.78;4949101;29;20651;-60
2023/12/20 07:28:48;;;;;;;2.67;1.50;;;;;;;17.72;55.72;100735.94;4951745;29;20207;-60
2023/12/20 07:31:15;;;;;;;3.03;1.53;;;;;;;17.73;55.97;100737.56;4949351;28;20422;-60
2023/12/20 07:33:41;;;;;;;2.10;1.20;;;;;;;17.76;55.62;100737.69;4958716;28;20295;-60
2023/12/20 07:36:07;;;;;;;2.00;1.20;;;;;;;17.75;56.00;100744.59;4956447;28;20433;-60
2023/12/20 07:38:32;;;;;;;2.30;1.50;;;;;;;17.76;55.52;100745.44;4949628;28;20190;-59
2023/12/20 07:40:58;;;;;;;1.87;1.10;;;;;;;17.74;55.49;100759.22;4953845;28;20472;-59
2023/12/20 07:43:23;;;;;;;2.47;1.30;;;;;;;17.74;55.87;100762.06;4958535;28;20187;-60
2023/12/20 07:45:49;;;;;;;2.50;1.40;;;;;;;17.75;55.92;100758.88;4959057;28;20182;-60
2023/12/20 07:48:14;;;;;;;2.40;1.50;;;;;;;17.76;55.43;100766.22;4964397;28;20190;-60
2023/12/20 07:50:40;;;;;;;2.60;1.47;;;;;;;17.79;55.18;100767.53;4965181;28;20194;-60
2023/12/20 07:53:05;;;;;;;1.67;0.90;;;;;;;17.79;55.58;100758.97;4971008;28;20214;-59
2023/12/20 07:55:31;;;;;;;3.40;1.20;;;;;;;17.77;55.31;100759.34;4971817;28;20198;-59
2023/12/20 07:57:57;;;;;;;2.23;1.20;;;;;;;17.80;55.29;100763.50;4971442;28;20250;-59
2023/12/20 08:00:23;;;;;;;2.33;1.30;;;;;;;17.79;55.08;100762.66;4966709;28;20202;-59
2023/12/20 08:02:48;;;;;;;2.03;1.27;;;;;;;17.75;55.30;100767.44;4934903;29;20407;-59
2023/12/20 08:05:14;;;;;;;4.63;1.43;;;;;;;17.75;55.80;100776.00;4934607;28;20257;-60
2023/12/20 08:07:39;;;;;;;2.53;1.17;;;;;;;17.80;55.56;100777.78;4966428;28;20233;-60
2023/12/20 08:10:05;;;;;;;2.80;1.33;;;;;;;17.79;55.58;100782.66;4966376;28;20179;-59
2023/12/20 08:12:31;;;;;;;3.63;1.60;;;;;;;17.83;55.40;100788.47;4951567;29;20630;-59
2023/12/20 08:14:57;;;;;;;2.80;1.20;;;;;;;17.82;55.27;100793.34;4962574;28;20441;-60
2023/12/20 08:17:23;;;;;;;2.80;1.50;;;;;;;17.89;55.16;100789.84;4955264;28;20546;-59
2023/12/20 08:19:48;;;;;;;3.03;1.13;;;;;;;17.75;55.56;100790.28;4951537;29;20246;-59
2023/12/20 08:22:14;;;;;;;1.90;1.07;;;;;;;17.79;55.66;100782.66;4957444;28;20580;-59
2023/12/20 08:24:39;;;;;;;3.17;1.23;;;;;;;17.82;55.45;100790.50;4970071;28;20182;-59
2023/12/20 08:27:05;;;;;;;3.10;1.40;;;;;;;17.86;55.22;100793.44;4968037;28;20190;-59
2023/12/20 08:29:30;;;;;;;2.97;1.63;;;;;;;17.86;55.29;100799.16;4953279;28;20187;-60
2023/12/20 08:31:56;;;;;;;2.43;1.27;;;;;;;17.82;55.53;100799.06;4957764;28;20207;-60
2023/12/20 08:34:22;;;;;;;2.77;1.50;;;;;;;17.82;55.21;100801.94;4950870;28;20663;-59
2023/12/20 08:36:47;;;;;;;2.83;1.40;;;;;;;17.86;54.98;100804.88;4962048;28;20178;-59
2023/12/20 08:39:12;;;;;;;2.50;1.40;;;;;;;17.82;55.45;100810.50;4956282;28;20187;-59
2023/12/20 08:41:38;;;;;;;3.60;1.30;;;;;;;17.84;55.61;100819.50;4951850;29;20216;-59
2023/12/20 08:44:03;;;;;;;2.23;1.20;;;;;;;17.86;55.02;100822.00;4951841;29;20630;-59
2023/12/20 08:46:29;;;;;;;2.13;1.20;;;;;;;17.83;55.52;100823.56;4962449;28;20621;-59
2023/12/20 08:48:55;;;;;;;4.53;1.37;;;;;;;17.83;55.29;100823.56;4945701;28;20212;-59
2023/12/20 08:51:22;;;;;;;2.53;1.40;;;;;;;17.84;55.55;100813.81;4971104;28;20174;-59
2023/12/20 08:53:48;;;;;;;2.10;1.00;;;;;;;17.84;55.22;100830.94;4967110;28;20197;-59
2023/12/20 08:56:14;;;;;;;2.30;1.17;;;;;;;17.83;55.76;100831.31;4971347;28;20831;-59
2023/12/20 08:58:39;;;;;;;2.27;1.10;;;;;;;17.80;55.63;100835.72;4949868;28;20446;-59
2023/12/20 09:01:05;;;;;;;1.77;0.97;;;;;;;17.77;55.64;100836.47;4965195;28;20187;-60
2023/12/20 09:03:30;;;;;;;3.27;1.30;;;;;;;17.82;55.57;100832.50;4951763;29;20175;-59
2023/12/20 09:05:55;;;;;;;2.20;1.30;;;;;;;17.82;55.23;100836.19;4960430;28;20241;-60
2023/12/20 09:08:21;;;;;;;2.03;1.17;;;;;;;17.89;55.07;100824.97;4954698;28;20198;-59
2023/12/20 09:10:47;;;;;;;2.03;1.10;;;;;;;17.82;55.64;100823.94;4951429;29;20180;-59
2023/12/20 09:13:12;;;;;;;2.60;1.17;;;;;;;17.82;55.15;100833.34;4950589;29;20245;-59
2023/12/20 09:15:37;;;;;;;2.87;1.40;;;;;;;17.85;55.24;100831.78;4964456;28;20186;-59
2023/12/20 09:18:03;;;;;;;3.53;1.30;;;;;;;17.84;55.33;100825.22;4969512;28;20187;-59
2023/12/20 09:20:28;;;;;;;2.30;1.20;;;;;;;17.88;55.60;100826.16;4971998;28;20217;-59
2023/12/20 09:22:54;;;;;;;2.77;1.40;;;;;;;17.85;56.01;100826.06;4938784;28;20241;-59
2023/12/20 09:25:19;;;;;;;3.77;1.43;;;;;;;17.80;55.18;100821.44;4972704;28;20182;-59
2023/12/20 09:27:45;;;;;;;3.60;1.30;;;;;;;17.81;55.36;100825.94;4970061;28;20186;-60
2023/12/20 09:30:11;;;;;;;4.70;1.40;;;;;;;17.91;55.02;100830.31;4966633;28;20670;-59
2023/12/20 09:32:37;;;;;;;2.10;1.17;;;;;;;17.84;55.17;100821.53;4972607;28;20205;-59
2023/12/20 09:35:05;;;;;;;2.00;1.30;;;;;;;17.85;55.19;100826.88;4973009;28;20429;-59
2023/12/20 09:37:30;;;;;;;3.00;1.20;;;;;;;17.88;55.64;100816.75;4969009;28;20190;-59
2023/12/20 09:39:56;;;;;;;2.40;1.20;;;;;;;17.88;55.19;100817.59;4973274;28;20480;-60
2023/12/20 09:42:38;;;;;;;2.00;1.10;;;;;;;17.86;55.45;100822.81;4971876;28;20194;-59
2023/12/20 09:45:04;;;;;;;3.50;1.43;;;;;;;17.89;55.40;100821.28;4971901;28;20182;-59
2023/12/20 09:47:29;;;;;;;2.23;0.97;;;;;;;17.92;55.02;100826.25;4939798;28;20780;-59
2023/12/20 09:49:55;;;;;;;2.23;1.20;;;;;;;17.83;55.09;100829.28;4963740;28;20186;-59
2023/12/20 09:52:21;;;;;;;2.47;1.20;;;;;;;17.85;55.39;100838.31;4954546;28;20229;-59
2023/12/20 09:54:47;;;;;;;1.90;1.20;;;;;;;17.82;55.51;100844.78;4954734;29;20172;-59
2023/12/20 09:57:13;;;;;;;2.77;1.30;;;;;;;17.79;55.44;100834.06;4939921;29;20617;-59
2023/12/20 09:59:39;;;;;;;2.23;1.20;;;;;;;17.89;55.06;100829.84;4954885;29;20430;-59
2023/12/20 10:02:05;;;;;;;2.20;1.20;;;;;;;17.85;55.82;100823.22;4960814;28;20249;-59
2023/12/20 10:04:31;;;;;;;2.13;1.30;;;;;;;17.80;56.24;100824.28;4974065;28;20433;-59
2023/12/20 10:06:57;;;;;;;2.03;1.23;;;;;;;17.84;55.60;100812.97;4973833;28;20725;-59
2023/12/20 10:09:22;;;;;;;2.70;1.20;;;;;;;17.86;55.21;100807.72;4949371;29;20485;-59
2023/12/20 10:11:48;;;;;;;2.03;1.23;;;;;;;17.86;55.56;100808.53;4953774;29;20199;-59
2023/12/20 10:14:14;;;;;;;2.20;1.30;;;;;;;17.91;55.43;100818.91;4943939;28;20278;-59
2023/12/20 10:16:40;;;;;;;2.90;1.10;;;;;;;17.89;55.44;100806.97;4968902;28;20183;-60
2023/12/20 10:19:06;;;;;;;1.77;1.03;;;;;;;17.87;55.30;100818.81;4935792;29;20190;-60
2023/12/20 10:21:31;;;;;;;2.60;1.20;;;;;;;17.83;55.41;100806.44;4953142;29;20952;-59
2023/12/20 10:23:57;;;;;;;2.33;1.17;;;;;;;17.88;55.14;100797.59;4935707;29;20190;-59
2023/12/20 10:26:23;;;;;;;2.27;1.13;;;;;;;17.90;55.01;100795.19;4955444;28;20190;-59
2023/12/20 10:28:56;;;;;;;2.27;1.00;;;;;;;17.86;55.35;100788.56;4953477;29;20183;-59
2023/12/20 10:31:34;;;;;;;1.97;1.10;;;;;;;17.85;55.71;100786.91;4938155;28;20426;-60
2023/12/20 10:34:01;;;;;;;2.03;1.00;;;;;;;17.85;55.55;100786.91;4972022;28;21019;-59
2023/12/20 10:36:30;;;;;;;1.87;1.07;;;;;;;17.88;55.53;100793.91;4973052;28;20422;-59
2023/12/20 10:38:57;;;;;;;2.10;1.20;;;;;;;17.92;55.18;100789.97;4972645;28;20584;-60
2023/12/20 10:41:27;;;;;;;2.33;1.30;;;;;;;17.89;55.23;100778.41;4969096;28;20481;-60
2023/12/20 10:43:58;;;;;;;2.60;1.13;;;;;;;17.89;55.04;100770.69;4973021;28;20488;-60
2023/12/20 10:46:26;;;;;;;3.43;1.60;;;;;;;17.93;55.32;100770.78;4953869;28;20437;-60
2023/12/20 10:48:52;;;;;;;3.00;1.27;;;;;;;17.95;54.91;100779.81;4970883;28;20426;-59
2023/12/20 10:51:18;;;;;;;2.07;1.30;;;;;;;17.93;55.33;100771.63;4955543;28;20433;-59
2023/12/20 10:53:44;;;;;;;2.70;1.23;;;;;;;17.95;54.68;100769.22;4972753;28;20476;-60
2023/12/20 10:56:09;;;;;;;2.73;1.17;;;;;;;17.98;54.97;100773.38;4970433;28;20434;-59
2023/12/20 10:58:35;;;;;;;2.30;1.00;;;;;;;17.94;55.10;100767.56;4972185;28;20770;-60
2023/12/20 11:01:01;;;;;;;1.70;1.03;;;;;;;17.97;55.03;100766.81;4955298;28;20533;-59
2023/12/20 11:03:29;;;;;;;1.97;0.93;;;;;;;17.96;55.32;100765.16;4955341;28;20669;-60
2023/12/20 11:06:09;;;;;;;2.97;1.10;;;;;;;17.91;55.02;100753.19;4919408;29;20505;-60
2023/12/20 11:08:50;;;;;;;2.60;1.50;;;;;;;17.87;55.56;100755.13;4935288;29;20422;-59
2023/12/20 11:11:28;;;;;;;1.77;1.00;;;;;;;17.88;55.58;100751.91;4941755;28;20536;-59
2023/12/20 11:14:05;;;;;;;1.80;1.20;;;;;;;17.93;55.41;100742.22;4938040;28;20545;-59
2023/12/20 11:16:36;;;;;;;5.50;1.10;;;;;;;17.94;55.09;100739.00;4935887;28;20492;-59
2023/12/20 11:19:05;;;;;;;3.27;1.23;;;;;;;17.91;55.20;100744.63;4941440;28;21035;-59
2023/12/20 11:21:31;;;;;;;2.10;1.10;;;;;;;17.90;55.40;100743.78;4971179;28;20449;-59